Time;durP1;ratioP1;P1;durP2;ratioP2;P2;SDS_P1;SDS_P2;PMS_P1;PMS_P2;Temp;Humidity;BMP_temperature;BMP_pressure;BME280_temperature;BME280_humidity;BME280_pressure;Samples;Min_cycle;Max_cycle;Signal;HPM_P1;HPM_P2
2023/09/24 00:02:16;;;;;;;14.85;5.68;;;;;;;22.80;55.64;99013.72;6105238;23;19998;-91
2023/09/24 00:04:44;;;;;;;15.82;6.20;;;;;;;22.81;55.77;99007.09;6105320;23;20005;-91
2023/09/24 00:07:10;;;;;;;14.13;4.82;;;;;;;22.88;54.87;99015.47;6084540;23;20017;-92
2023/09/24 00:09:36;;;;;;;13.10;4.70;;;;;;;22.84;54.90;99011.88;6106607;23;20064;-92
2023/09/24 00:12:02;;;;;;;15.07;6.40;;;;;;;22.78;56.42;99018.78;6132194;23;20433;-92
2023/09/24 00:14:27;;;;;;;19.08;6.22;;;;;;;22.71;56.79;99013.94;6106001;23;20144;-91
2023/09/24 00:16:53;;;;;;;13.05;6.05;;;;;;;22.75;57.10;99020.31;6131175;23;20414;-91
2023/09/24 00:19:19;;;;;;;13.63;5.88;;;;;;;22.83;56.86;99025.94;6109133;23;19998;-91
2023/09/24 00:21:48;;;;;;;17.35;6.57;;;;;;;22.71;56.73;99008.47;6081575;23;20425;-92
2023/09/24 00:24:17;;;;;;;14.15;5.28;;;;;;;22.63;56.21;99005.91;6130837;23;20002;-91
2023/09/24 00:26:45;;;;;;;13.15;5.72;;;;;;;22.72;56.65;99015.56;6155233;23;20005;-91
2023/09/24 00:29:11;;;;;;;15.10;5.90;;;;;;;22.65;56.58;99006.34;6128771;23;20001;-93
2023/09/24 00:31:37;;;;;;;15.02;6.07;;;;;;;22.65;55.87;99000.88;6131437;23;20065;-92
2023/09/24 00:34:03;;;;;;;18.65;6.18;;;;;;;22.72;56.88;99028.47;6080633;23;20002;-91
2023/09/24 00:36:28;;;;;;;14.85;4.45;;;;;;;22.61;55.61;98998.03;6130107;23;20384;-91
2023/09/24 00:38:56;;;;;;;15.40;5.53;;;;;;;22.81;54.79;99034.56;6105856;23;20063;-90
2023/09/24 00:41:22;;;;;;;17.13;5.57;;;;;;;22.66;56.21;99018.91;6104675;23;19998;-92
2023/09/24 00:43:47;;;;;;;11.05;4.63;;;;;;;22.70;55.02;99008.81;6106359;23;20001;-92
2023/09/24 00:46:14;;;;;;;18.35;5.22;;;;;;;22.80;55.00;99025.50;6086976;23;20002;-92
2023/09/24 00:48:43;;;;;;;18.38;5.53;;;;;;;22.77;55.94;99008.97;6087302;23;20012;-91
2023/09/24 00:51:16;;;;;;;17.05;6.00;;;;;;;22.74;56.77;99015.97;6089054;23;20001;-92
2023/09/24 00:53:42;;;;;;;15.15;5.90;;;;;;;22.71;57.08;99015.91;6086259;23;20013;-92
2023/09/24 00:56:08;;;;;;;17.55;5.97;;;;;;;22.77;56.52;99020.75;6086016;23;20060;-93
2023/09/24 00:58:35;;;;;;;19.38;6.80;;;;;;;22.53;57.36;98999.03;6087719;23;20411;-93
2023/09/24 01:01:02;;;;;;;12.68;5.90;;;;;;;22.53;57.52;99010.78;6086452;23;19986;-92
2023/09/24 01:03:28;;;;;;;13.25;5.70;;;;;;;22.52;57.49;99011.97;6086909;23;19994;-92
2023/09/24 01:05:54;;;;;;;12.32;5.55;;;;;;;22.48;57.79;99002.84;6085446;23;20058;-92
2023/09/24 01:08:23;;;;;;;16.17;5.50;;;;;;;22.54;57.66;99008.88;6086313;23;20004;-92
2023/09/24 01:10:49;;;;;;;18.50;6.05;;;;;;;22.40;57.42;98990.91;6086771;23;20337;-93
2023/09/24 01:13:15;;;;;;;14.77;5.47;;;;;;;22.47;56.93;98997.72;6109655;23;20001;-92
2023/09/24 01:15:44;;;;;;;16.80;5.18;;;;;;;22.44;56.72;99001.19;6084829;23;20005;-93
2023/09/24 01:18:10;;;;;;;16.75;6.10;;;;;;;22.52;57.18;99020.19;6086495;23;20084;-92
2023/09/24 01:20:36;;;;;;;16.98;5.43;;;;;;;22.46;57.26;99013.38;6110103;23;20507;-93
2023/09/24 01:23:04;;;;;;;21.17;5.57;;;;;;;22.45;57.55;99022.75;6087244;23;20001;-93
2023/09/24 01:25:36;;;;;;;17.08;6.00;;;;;;;22.37;58.61;99027.31;6110783;23;19997;-91
2023/09/24 01:28:03;;;;;;;21.70;5.68;;;;;;;22.37;58.47;99010.03;6084417;23;19997;-92
2023/09/24 01:30:30;;;;;;;16.83;6.47;;;;;;;22.31;58.61;99019.69;6111568;23;20002;-92
2023/09/24 01:32:57;;;;;;;19.20;6.47;;;;;;;22.31;58.84;99025.19;6086717;23;20010;-92
2023/09/24 01:35:27;;;;;;;17.27;6.07;;;;;;;22.29;58.56;99022.78;6111912;23;20016;-91
2023/09/24 01:38:00;;;;;;;17.20;6.20;;;;;;;22.21;58.98;99029.22;6087746;23;20005;-92
2023/09/24 01:40:32;;;;;;;18.25;5.70;;;;;;;22.22;58.83;99022.56;6089078;23;20493;-92
2023/09/24 01:42:58;;;;;;;13.73;5.43;;;;;;;22.30;58.55;99037.28;6110832;23;20057;-91
2023/09/24 01:45:25;;;;;;;16.00;5.97;;;;;;;22.24;59.22;99030.50;6111743;23;19998;-92
2023/09/24 01:47:51;;;;;;;12.65;5.93;;;;;;;22.12;58.94;99012.97;6111352;23;20020;-92
2023/09/24 01:50:17;;;;;;;17.83;5.88;;;;;;;22.10;59.47;99023.47;6132854;23;20002;-92
2023/09/24 01:52:45;;;;;;;14.07;6.03;;;;;;;22.01;59.92;99020.09;6085230;23;20001;-91
2023/09/24 01:55:13;;;;;;;16.45;6.07;;;;;;;21.99;59.54;99016.91;6085743;23;20052;-93
2023/09/24 01:57:43;;;;;;;13.38;5.40;;;;;;;22.03;59.76;99023.28;6087321;23;20024;-93
2023/09/24 02:00:12;;;;;;;16.73;6.68;;;;;;;22.06;59.69;99025.34;6110174;23;20009;-93
2023/09/24 02:02:41;;;;;;;15.68;6.32;;;;;;;22.10;59.60;99028.16;6134917;23;20474;-93
2023/09/24 02:05:10;;;;;;;11.50;5.72;;;;;;;21.98;59.62;99009.88;6088859;23;20086;-93
2023/09/24 02:07:38;;;;;;;18.15;6.00;;;;;;;22.03;59.49;99017.81;6087507;23;20437;-92
2023/09/24 02:10:05;;;;;;;16.85;6.30;;;;;;;22.04;59.55;99035.03;6161448;23;19993;-93
2023/09/24 02:12:35;;;;;;;13.35;5.80;;;;;;;22.00;59.97;99037.72;6087797;23;20415;-92
2023/09/24 02:15:04;;;;;;;12.93;5.63;;;;;;;22.02;59.79;99040.09;6087875;23;20008;-94
2023/09/24 02:17:30;;;;;;;13.88;6.10;;;;;;;22.02;59.68;99037.34;6112372;23;20040;-92
2023/09/24 02:19:58;;;;;;;14.57;6.05;;;;;;;21.98;59.86;99026.31;6111461;23;20341;-93
2023/09/24 02:22:24;;;;;;;17.40;6.55;;;;;;;21.93;59.90;99026.56;6088031;23;20017;-93
2023/09/24 02:24:49;;;;;;;14.98;6.72;;;;;;;21.95;59.93;99025.06;6087055;23;20432;-93
2023/09/24 02:27:15;;;;;;;13.93;6.00;;;;;;;22.07;60.06;99037.09;6087930;23;20436;-93
2023/09/24 02:29:40;;;;;;;11.60;5.20;;;;;;;21.98;59.46;99020.81;6086716;23;20063;-92
2023/09/24 02:32:06;;;;;;;10.02;5.43;;;;;;;21.99;59.75;99025.94;6087302;23;20006;-91
2023/09/24 02:34:31;;;;;;;9.75;5.45;;;;;;;21.94;59.65;99030.91;6088541;23;20340;-92
2023/09/24 02:36:57;;;;;;;17.25;6.18;;;;;;;21.82;60.18;99018.06;6088236;23;20005;-92
2023/09/24 02:39:22;;;;;;;17.15;6.38;;;;;;;21.83;59.99;99016.94;6113439;23;20002;-92
2023/09/24 02:41:49;;;;;;;14.38;5.72;;;;;;;21.91;60.02;99028.84;6110929;23;19997;-92
2023/09/24 02:44:17;;;;;;;13.43;5.82;;;;;;;21.92;59.76;99036.75;6087433;23;19997;-92
2023/09/24 02:46:44;;;;;;;12.52;5.68;;;;;;;21.88;60.27;99037.81;6088875;23;20018;-92
2023/09/24 02:49:10;;;;;;;18.35;5.90;;;;;;;21.67;59.87;99016.91;6087703;23;20012;-92
2023/09/24 02:51:35;;;;;;;15.32;5.50;;;;;;;21.71;60.49;99031.50;6087953;23;19989;-92
2023/09/24 02:54:04;;;;;;;17.55;5.45;;;;;;;21.72;59.76;99019.38;6087220;23;20014;-92
2023/09/24 02:56:30;;;;;;;21.23;6.07;;;;;;;21.80;59.87;99021.16;6110584;23;20025;-92
2023/09/24 02:58:55;;;;;;;12.88;5.18;;;;;;;21.80;60.07;99017.63;6088457;23;20036;-93
2023/09/24 03:01:21;;;;;;;11.82;5.00;;;;;;;21.84;59.66;99021.25;6087686;23;20006;-92
2023/09/24 03:03:46;;;;;;;10.77;4.85;;;;;;;21.90;59.10;99022.59;6111771;23;20023;-92
2023/09/24 03:06:13;;;;;;;18.17;5.85;;;;;;;21.75;59.91;99018.69;6086527;23;20009;-92
2023/09/24 03:08:39;;;;;;;17.58;5.53;;;;;;;21.67;60.71;99022.38;6088371;23;20037;-92
2023/09/24 03:11:14;;;;;;;14.48;5.40;;;;;;;21.69;60.98;99024.78;6087771;23;19997;-92
2023/09/24 03:13:40;;;;;;;16.75;5.57;;;;;;;21.72;60.70;99024.84;6089445;23;20016;-92
2023/09/24 03:16:07;;;;;;;15.57;5.85;;;;;;;21.62;61.19;99014.41;6085204;23;20012;-92
2023/09/24 03:18:33;;;;;;;12.65;5.60;;;;;;;21.61;60.88;99009.31;6136743;23;20017;-91
2023/09/24 03:20:58;;;;;;;16.08;5.15;;;;;;;21.51;61.33;99010.59;6088057;23;20017;-92
2023/09/24 03:23:24;;;;;;;16.42;5.60;;;;;;;21.59;60.99;99021.41;6112030;23;19990;-93
2023/09/24 03:25:51;;;;;;;21.60;5.97;;;;;;;21.57;60.58;99012.72;6086189;23;19989;-93
2023/09/24 03:28:19;;;;;;;16.48;6.30;;;;;;;21.55;61.29;99022.44;6086693;23;20001;-93
2023/09/24 03:30:45;;;;;;;10.50;4.47;;;;;;;21.53;61.35;99024.75;6086597;23;20001;-93
2023/09/24 03:33:10;;;;;;;10.88;5.30;;;;;;;21.43;61.70;99022.50;6087469;23;20012;-93
2023/09/24 03:35:36;;;;;;;16.00;5.40;;;;;;;21.38;61.95;99029.00;6087652;23;20009;-92
2023/09/24 03:38:01;;;;;;;13.02;5.30;;;;;;;21.36;61.92;99023.88;6088298;23;20010;-92
2023/09/24 03:40:27;;;;;;;16.60;6.63;;;;;;;21.29;62.16;99022.88;6086507;23;20001;-92
2023/09/24 03:42:53;;;;;;;14.95;5.93;;;;;;;21.35;62.05;99041.47;6087313;23;19997;-93
2023/09/24 03:45:20;;;;;;;14.00;5.45;;;;;;;21.29;61.42;99028.34;6086500;23;20056;-92
2023/09/24 03:47:45;;;;;;;13.68;5.90;;;;;;;21.30;62.15;99035.44;6086544;23;20029;-92
2023/09/24 03:50:13;;;;;;;18.27;5.32;;;;;;;21.28;61.63;99029.50;6087658;23;20032;-92
2023/09/24 03:52:40;;;;;;;9.35;4.78;;;;;;;21.15;61.87;99023.28;6110386;23;20001;-92
2023/09/24 03:55:06;;;;;;;15.73;5.13;;;;;;;21.12;61.82;99027.50;6086922;23;20016;-93
2023/09/24 03:57:31;;;;;;;10.60;5.28;;;;;;;21.14;61.18;99032.63;6111331;23;19998;-92
2023/09/24 03:59:57;;;;;;;18.38;5.15;;;;;;;21.12;61.67;99032.19;6087484;23;20006;-93
2023/09/24 04:02:23;;;;;;;13.82;5.30;;;;;;;21.01;61.32;99023.66;6110327;23;20437;-92
2023/09/24 04:04:49;;;;;;;17.20;4.97;;;;;;;21.03;61.15;99026.06;6087066;23;20005;-93
2023/09/24 04:07:15;;;;;;;13.10;4.85;;;;;;;21.03;61.41;99026.84;6111594;23;20020;-92
2023/09/24 04:10:27;;;;;;;16.50;4.82;;;;;;;21.03;61.25;99047.97;6087405;23;20002;-92
2023/09/24 04:12:52;;;;;;;13.77;5.55;;;;;;;20.90;61.86;99039.78;6135570;23;20010;-92
2023/09/24 04:15:28;;;;;;;13.70;5.53;;;;;;;20.94;61.95;99045.38;6088400;23;20402;-92
2023/09/24 04:17:56;;;;;;;16.50;5.45;;;;;;;20.92;61.59;99042.97;6089020;23;20021;-93
2023/09/24 04:20:22;;;;;;;12.90;5.70;;;;;;;20.90;61.84;99056.19;6112296;23;20008;-92
2023/09/24 04:22:47;;;;;;;12.18;5.25;;;;;;;20.93;62.07;99050.00;6086139;23;20440;-92
2023/09/24 04:25:14;;;;;;;14.10;5.32;;;;;;;20.96;62.46;99052.06;6086569;23;20001;-92
2023/09/24 04:27:43;;;;;;;15.45;5.32;;;;;;;21.03;62.35;99050.69;6086370;23;20002;-92
2023/09/24 04:30:16;;;;;;;21.70;5.70;;;;;;;21.03;62.25;99054.22;6087237;23;20008;-92
2023/09/24 04:32:48;;;;;;;12.93;5.65;;;;;;;20.96;62.55;99054.81;6089243;23;20041;-92
2023/09/24 04:35:14;;;;;;;16.38;6.03;;;;;;;20.97;62.26;99042.72;6087097;23;20394;-93
2023/09/24 04:37:39;;;;;;;16.58;5.82;;;;;;;21.02;62.21;99049.88;6085240;23;20017;-92
2023/09/24 04:40:11;;;;;;;14.73;6.20;;;;;;;20.98;62.43;99043.53;6086779;23;20173;-93
2023/09/24 04:42:37;;;;;;;22.30;11.18;;;;;;;21.09;62.47;99060.25;6088866;23;20001;-92
2023/09/24 04:45:03;;;;;;;23.35;8.98;;;;;;;21.07;62.63;99055.13;6109814;23;20012;-91
2023/09/24 04:47:29;;;;;;;14.52;5.82;;;;;;;20.97;62.81;99039.97;6086623;23;20013;-93
2023/09/24 04:49:54;;;;;;;12.70;6.13;;;;;;;20.98;62.94;99036.09;6086326;23;20080;-91
2023/09/24 04:52:20;;;;;;;18.17;8.25;;;;;;;21.04;62.71;99053.06;6085806;23;20005;-91
2023/09/24 04:54:46;;;;;;;13.80;6.43;;;;;;;21.03;62.74;99042.47;6085847;23;20016;-92
2023/09/24 04:57:11;;;;;;;24.05;6.55;;;;;;;21.17;62.84;99065.59;6086287;23;20006;-92
2023/09/24 04:59:40;;;;;;;18.35;6.80;;;;;;;21.04;62.43;99042.13;6086122;23;20428;-93
2023/09/24 05:02:05;;;;;;;15.45;6.65;;;;;;;21.15;62.88;99062.41;6086762;23;20008;-92
2023/09/24 05:04:32;;;;;;;15.95;6.30;;;;;;;21.13;63.12;99053.75;6085764;23;20001;-92
2023/09/24 05:06:57;;;;;;;12.70;5.78;;;;;;;21.22;63.15;99061.03;6087315;23;20001;-93
2023/09/24 05:09:23;;;;;;;15.02;5.75;;;;;;;21.20;63.11;99045.72;6085762;23;20001;-92
2023/09/24 05:11:49;;;;;;;13.93;6.28;;;;;;;21.29;62.74;99053.00;6083961;23;20009;-92
2023/09/24 05:14:14;;;;;;;13.32;5.72;;;;;;;21.28;62.79;99046.72;6085204;23;20029;-93
2023/09/24 05:16:40;;;;;;;18.92;6.28;;;;;;;21.35;63.07;99059.81;6109202;23;20392;-91
2023/09/24 05:19:07;;;;;;;15.30;5.97;;;;;;;21.24;62.73;99043.09;6086695;23;20436;-94
2023/09/24 05:21:32;;;;;;;19.08;5.93;;;;;;;21.51;62.58;99076.34;6085007;23;20081;-93
2023/09/24 05:23:58;;;;;;;15.73;5.78;;;;;;;21.47;62.40;99059.81;6085236;23;20412;-93
2023/09/24 05:26:24;;;;;;;17.25;5.60;;;;;;;21.45;62.83;99064.84;6085238;23;20001;-93
2023/09/24 05:28:51;;;;;;;13.07;5.32;;;;;;;21.52;62.87;99067.78;6085373;23;19990;-91
2023/09/24 05:31:17;;;;;;;22.40;9.30;;;;;;;21.58;62.21;99057.34;6086243;23;20020;-93
2023/09/24 05:33:44;;;;;;;20.85;6.30;;;;;;;21.68;61.91;99067.81;6084582;23;20002;-91
2023/09/24 05:36:10;;;;;;;13.63;6.15;;;;;;;21.77;62.45;99065.72;6087115;23;20009;-93
2023/09/24 05:38:36;;;;;;;20.02;6.75;;;;;;;21.84;61.92;99061.56;6087437;23;20059;-92
2023/09/24 05:41:02;;;;;;;16.60;5.95;;;;;;;21.91;61.16;99059.00;6086550;23;20001;-92
2023/09/24 05:43:27;;;;;;;20.83;7.90;;;;;;;22.08;60.62;99066.09;6085460;23;20072;-92
2023/09/24 05:45:53;;;;;;;13.75;5.97;;;;;;;22.12;61.33;99078.78;6086774;23;20001;-92
2023/09/24 05:48:19;;;;;;;10.85;5.35;;;;;;;22.19;61.61;99080.88;6086285;23;20048;-93
2023/09/24 05:50:45;;;;;;;33.25;13.07;;;;;;;22.32;61.33;99089.84;6110722;23;19997;-93
2023/09/24 05:53:11;;;;;;;23.85;7.90;;;;;;;22.34;59.55;99074.63;6109291;23;20041;-92
2023/09/24 05:55:36;;;;;;;22.13;8.02;;;;;;;22.50;60.11;99093.03;6109766;23;20001;-93
2023/09/24 05:58:04;;;;;;;17.77;7.60;;;;;;;22.54;58.65;99086.50;6086634;23;20006;-93
2023/09/24 06:00:31;;;;;;;23.95;6.57;;;;;;;22.62;56.29;99081.16;6111181;23;20055;-93
2023/09/24 06:02:57;;;;;;;23.98;7.68;;;;;;;22.73;57.92;99096.72;6087095;23;20072;-93
2023/09/24 06:05:23;;;;;;;20.35;6.75;;;;;;;22.75;57.49;99086.19;6086025;23;20041;-92
2023/09/24 06:07:49;;;;;;;18.52;5.72;;;;;;;22.88;55.82;99080.59;6085805;23;20329;-90
2023/09/24 06:10:14;;;;;;;15.70;4.35;;;;;;;23.10;53.11;99099.16;6086972;23;20041;-92
2023/09/24 06:12:40;;;;;;;16.35;4.90;;;;;;;23.24;51.92;99097.84;6085969;23;20014;-92
2023/09/24 06:15:08;;;;;;;17.75;4.07;;;;;;;23.34;50.96;99092.59;6085587;23;20012;-92
2023/09/24 06:17:34;;;;;;;14.73;4.70;;;;;;;23.39;53.81;99089.56;6086290;23;20333;-91
2023/09/24 06:20:00;;;;;;;19.75;6.00;;;;;;;23.53;54.42;99088.25;6087411;23;20330;-92
2023/09/24 06:22:27;;;;;;;16.90;6.43;;;;;;;23.66;55.06;99097.94;6085576;23;20009;-93
2023/09/24 06:24:53;;;;;;;12.65;5.78;;;;;;;23.69;56.29;99083.47;6086653;23;20013;-93
2023/09/24 06:27:21;;;;;;;13.02;5.82;;;;;;;23.79;55.96;99091.16;6085191;23;20400;-91
2023/09/24 06:29:49;;;;;;;12.65;5.18;;;;;;;23.83;55.97;99082.19;6110649;23;20029;-92
2023/09/24 06:32:15;;;;;;;18.42;5.45;;;;;;;23.88;56.29;99074.41;6087181;23;19998;-92
2023/09/24 06:34:41;;;;;;;16.38;4.80;;;;;;;24.10;55.59;99100.34;6086523;23;20013;-93
2023/09/24 06:37:06;;;;;;;17.52;5.40;;;;;;;24.05;54.86;99075.09;6087199;23;20009;-93
2023/09/24 06:39:33;;;;;;;12.77;4.05;;;;;;;24.29;52.09;99115.22;6086625;23;20348;-91
2023/09/24 06:42:00;;;;;;;13.20;5.18;;;;;;;24.36;54.52;99105.13;6086403;23;20042;-92
2023/09/24 06:44:25;;;;;;;19.27;4.57;;;;;;;24.43;53.40;99103.66;6086977;23;19997;-93
2023/09/24 06:46:51;;;;;;;11.32;4.55;;;;;;;24.50;51.34;99095.53;6085639;23;20074;-93
2023/09/24 06:49:16;;;;;;;9.68;3.45;;;;;;;24.72;48.99;99107.69;6112491;23;20005;-93
2023/09/24 06:51:42;;;;;;;15.35;4.97;;;;;;;24.87;46.67;99105.94;6087680;23;20063;-92
2023/09/24 06:54:08;;;;;;;14.13;4.22;;;;;;;24.93;46.04;99098.97;6111780;23;20033;-94
2023/09/24 06:56:33;;;;;;;13.57;3.88;;;;;;;25.25;45.58;99126.19;6087385;23;19997;-93
2023/09/24 06:58:59;;;;;;;15.80;3.30;;;;;;;25.26;45.01;99117.53;6087564;23;20360;-93
2023/09/24 07:01:24;;;;;;;11.77;3.75;;;;;;;25.45;44.44;99115.81;6087916;23;20005;-92
2023/09/24 07:03:51;;;;;;;13.23;3.67;;;;;;;25.64;44.72;99134.94;6088114;23;19998;-92
2023/09/24 07:06:17;;;;;;;11.30;3.40;;;;;;;25.79;43.79;99133.97;6112094;23;20428;-92
2023/09/24 07:08:43;;;;;;;13.00;3.60;;;;;;;25.98;43.35;99140.47;6090205;23;20001;-93
2023/09/24 07:11:25;;;;;;;11.77;3.13;;;;;;;26.15;43.25;99147.38;6087713;23;20001;-93
2023/09/24 07:13:51;;;;;;;15.70;3.63;;;;;;;26.20;44.19;99147.81;6111853;23;20006;-93
2023/09/24 07:16:24;;;;;;;17.77;3.80;;;;;;;26.29;43.43;99144.72;6112246;23;20008;-93
2023/09/24 07:18:50;;;;;;;15.48;3.78;;;;;;;26.37;42.74;99140.06;6089506;23;20417;-94
2023/09/24 07:21:22;;;;;;;11.13;3.92;;;;;;;26.42;41.81;99132.25;6088918;23;20029;-94
2023/09/24 07:23:50;;;;;;;16.10;3.67;;;;;;;26.67;41.56;99153.78;6089680;23;20009;-94
2023/09/24 07:26:16;;;;;;;12.15;3.30;;;;;;;26.74;40.70;99144.75;6090269;23;20009;-95
2023/09/24 07:28:50;;;;;;;17.17;3.35;;;;;;;26.83;40.72;99134.16;6088784;23;20005;-94
2023/09/24 07:31:22;;;;;;;15.38;3.28;;;;;;;26.99;39.97;99136.63;6090235;23;20478;-94
2023/09/24 07:33:51;;;;;;;12.40;3.63;;;;;;;27.16;39.03;99138.69;6089295;23;20006;-92
2023/09/24 07:36:17;;;;;;;17.50;3.97;;;;;;;27.25;39.15;99132.88;6086955;23;20005;-93
2023/09/24 07:38:42;;;;;;;13.38;3.50;;;;;;;27.36;39.14;99133.72;6087971;23;20032;-93
2023/09/24 07:41:08;;;;;;;18.90;3.58;;;;;;;27.42;38.25;99140.47;6087013;23;20437;-93
2023/09/24 07:43:38;;;;;;;13.63;3.90;;;;;;;27.49;38.79;99136.16;6086788;23;20009;-93
2023/09/24 07:46:04;;;;;;;13.40;3.90;;;;;;;27.52;39.06;99127.88;6089563;23;20012;-93
2023/09/24 07:48:30;;;;;;;10.18;3.22;;;;;;;27.78;38.53;99154.44;6088120;23;20001;-92
2023/09/24 07:50:56;;;;;;;17.25;3.75;;;;;;;27.65;37.13;99124.75;6088567;23;20041;-92
2023/09/24 07:53:22;;;;;;;13.90;3.42;;;;;;;27.92;37.01;99150.16;6086719;23;20009;-93
2023/09/24 07:55:58;;;;;;;12.82;3.90;;;;;;;28.05;36.59;99156.13;6134878;23;20510;-93
2023/09/24 07:58:23;;;;;;;13.00;3.25;;;;;;;28.13;35.67;99143.88;6086737;23;20009;-93
2023/09/24 08:00:50;;;;;;;12.60;3.03;;;;;;;28.15;35.34;99150.59;6086626;23;20032;-92
2023/09/24 08:03:16;;;;;;;11.63;3.33;;;;;;;28.28;34.50;99139.94;6087285;23;19998;-93
2023/09/24 08:05:42;;;;;;;20.33;4.20;;;;;;;28.39;34.25;99140.75;6086549;23;20079;-93
2023/09/24 08:08:07;;;;;;;20.02;3.67;;;;;;;28.41;34.82;99134.84;6087163;23;20013;-94
2023/09/24 08:10:33;;;;;;;9.57;3.28;;;;;;;28.68;35.88;99149.13;6088339;23;20084;-92
2023/09/24 08:12:59;;;;;;;11.32;4.47;;;;;;;28.60;36.70;99137.22;6112131;23;20421;-93
2023/09/24 08:15:24;;;;;;;9.40;3.25;;;;;;;28.73;34.33;99131.28;6085304;23;20029;-93
2023/09/24 08:17:50;;;;;;;13.88;3.83;;;;;;;28.83;34.73;99133.25;6087600;23;20001;-93
2023/09/24 08:20:18;;;;;;;9.10;3.75;;;;;;;28.87;34.88;99134.03;6087078;23;20032;-93
2023/09/24 08:22:44;;;;;;;12.18;3.40;;;;;;;28.93;34.56;99140.78;6088116;23;20013;-94
2023/09/24 08:25:10;;;;;;;14.48;4.15;;;;;;;29.02;35.13;99137.59;6087050;23;19998;-91
2023/09/24 08:27:35;;;;;;;12.02;4.00;;;;;;;28.98;35.89;99125.72;6085498;23;19994;-92
2023/09/24 08:30:01;;;;;;;17.90;4.65;;;;;;;29.09;34.92;99129.25;6086614;23;20013;-92
2023/09/24 08:32:27;;;;;;;15.02;4.13;;;;;;;29.11;35.01;99137.19;6087039;23;21992;-93
2023/09/24 08:34:53;;;;;;;14.68;3.70;;;;;;;29.15;35.43;99130.44;6085762;23;20349;-92
2023/09/24 08:37:19;;;;;;;18.40;3.63;;;;;;;29.30;34.43;99141.50;6085832;23;20012;-93
2023/09/24 08:39:44;;;;;;;15.18;4.03;;;;;;;29.32;35.69;99139.13;6111381;23;20349;-93
2023/09/24 08:42:10;;;;;;;18.80;4.55;;;;;;;29.28;35.88;99130.00;6087991;23;19997;-92
2023/09/24 08:44:38;;;;;;;20.95;4.50;;;;;;;29.23;35.80;99131.22;6087498;23;20045;-92
2023/09/24 08:47:03;;;;;;;14.88;4.00;;;;;;;29.21;35.84;99139.94;6085739;23;20068;-92
2023/09/24 08:49:31;;;;;;;12.52;3.85;;;;;;;29.17;35.56;99136.38;6112187;23;20013;-93
2023/09/24 08:51:57;;;;;;;16.58;4.15;;;;;;;29.18;35.73;99137.19;6087193;23;20029;-93
2023/09/24 08:54:23;;;;;;;23.02;4.47;;;;;;;29.22;35.87;99137.97;6085085;23;20057;-92
2023/09/24 08:56:49;;;;;;;12.13;4.05;;;;;;;29.11;35.62;99118.56;6087636;23;20012;-93
2023/09/24 08:59:14;;;;;;;18.60;4.47;;;;;;;29.17;35.66;99136.38;6086234;23;20069;-91
2023/09/24 09:01:40;;;;;;;14.73;3.80;;;;;;;29.05;35.54;99122.13;6088421;23;20005;-92
2023/09/24 09:04:05;;;;;;;11.02;4.28;;;;;;;29.09;36.35;99126.47;6085985;23;20001;-93
2023/09/24 09:06:32;;;;;;;16.48;4.35;;;;;;;29.00;36.39;99145.50;6086020;23;20001;-92
2023/09/24 09:08:57;;;;;;;19.30;4.22;;;;;;;28.89;36.37;99130.84;6085888;23;20001;-93
2023/09/24 09:11:37;;;;;;;16.77;4.03;;;;;;;28.90;36.55;99119.38;6085871;23;20122;-93
2023/09/24 09:14:02;;;;;;;18.00;3.90;;;;;;;28.96;36.10;99120.56;6110366;23;20072;-93
2023/09/24 09:16:28;;;;;;;14.82;3.78;;;;;;;28.96;36.36;99111.47;6086578;23;20451;-93
2023/09/24 09:19:00;;;;;;;15.05;3.97;;;;;;;29.07;36.09;99117.75;6085946;23;19982;-93
2023/09/24 09:21:26;;;;;;;16.58;3.95;;;;;;;29.14;36.17;99117.00;6110676;23;20084;-93
2023/09/24 09:23:52;;;;;;;14.88;4.03;;;;;;;29.25;36.10;99114.19;6110456;23;20306;-93
2023/09/24 09:26:18;;;;;;;15.40;3.65;;;;;;;29.33;35.30;99121.28;6134330;23;19997;-93
2023/09/24 09:28:44;;;;;;;14.25;3.63;;;;;;;29.44;35.93;99127.59;6086980;23;20487;-92
2023/09/24 09:31:11;;;;;;;16.50;4.10;;;;;;;29.50;35.38;99123.19;6111278;23;19998;-93
2023/09/24 09:33:41;;;;;;;14.43;3.50;;;;;;;29.54;35.22;99132.28;6086585;23;20009;-94
2023/09/24 09:36:24;;;;;;;17.53;3.67;;;;;;;29.54;35.36;99117.66;6085316;23;20009;-92
2023/09/24 09:38:50;;;;;;;17.08;4.20;;;;;;;29.52;34.94;99114.47;6084950;23;20011;-93
2023/09/24 09:41:19;;;;;;;18.00;4.10;;;;;;;29.62;34.81;99119.19;6109753;23;20001;-92
2023/09/24 09:43:49;;;;;;;20.27;4.03;;;;;;;29.70;35.10;99125.50;6086651;23;20059;-93
2023/09/24 09:46:22;;;;;;;16.33;4.32;;;;;;;29.56;35.00;99107.72;6110189;23;20003;-92
2023/09/24 09:49:05;;;;;;;18.77;4.50;;;;;;;29.78;35.48;99132.59;6086436;23;19990;-92
2023/09/24 09:51:43;;;;;;;21.55;4.30;;;;;;;29.72;34.87;99134.25;6089748;23;20009;-92
2023/09/24 09:54:09;;;;;;;16.77;4.45;;;;;;;29.64;35.35;99124.34;6088844;23;20006;-92
2023/09/24 09:56:38;;;;;;;17.05;4.22;;;;;;;29.59;35.19;99125.53;6085176;23;20029;-92
2023/09/24 09:59:04;;;;;;;17.90;4.47;;;;;;;29.71;35.65;99116.78;6111446;23;20005;-91
2023/09/24 10:01:30;;;;;;;13.65;3.85;;;;;;;29.88;35.10;99134.53;6086930;23;20002;-94
2023/09/24 10:03:56;;;;;;;13.43;4.05;;;;;;;29.80;35.02;99119.09;6085547;23;19998;-93
2023/09/24 10:06:24;;;;;;;12.40;3.90;;;;;;;29.84;34.13;99117.09;6086719;23;20004;-93
2023/09/24 10:08:50;;;;;;;15.68;3.17;;;;;;;30.04;34.18;99122.94;6086958;23;20033;-93
2023/09/24 10:11:31;;;;;;;16.40;4.00;;;;;;;30.16;34.60;99122.47;6110304;23;19998;-92
2023/09/24 10:13:56;;;;;;;13.57;5.28;;;;;;;30.17;34.20;99112.97;6159790;23;20005;-92
2023/09/24 10:16:25;;;;;;;10.50;3.40;;;;;;;30.22;34.01;99120.06;6110154;23;20009;-92
2023/09/24 10:18:54;;;;;;;16.52;3.95;;;;;;;30.26;33.99;99112.50;6134170;23;20008;-92
2023/09/24 10:21:37;;;;;;;12.50;3.28;;;;;;;30.39;33.57;99105.25;6086709;23;20437;-92
2023/09/24 10:24:17;;;;;;;17.85;3.83;;;;;;;30.46;33.73;99107.19;6111936;23;20001;-93
2023/09/24 10:26:45;;;;;;;20.15;4.55;;;;;;;30.52;33.77;99115.88;6163144;23;20417;-93
2023/09/24 10:29:11;;;;;;;16.95;4.20;;;;;;;30.53;33.80;99096.03;6163288;23;20001;-93
2023/09/24 10:32:09;;;;;;;27.27;4.60;;;;;;;30.65;33.70;99103.03;6112927;23;20009;-93
2023/09/24 10:35:09;;;;;;;15.80;4.10;;;;;;;30.65;33.72;99103.03;6137425;23;20002;-93
2023/09/24 10:37:38;;;;;;;11.13;3.40;;;;;;;30.71;33.56;99098.63;6088991;23;20005;-91
2023/09/24 10:40:05;;;;;;;12.63;3.80;;;;;;;30.69;33.10;99095.47;6089262;23;20006;-93
2023/09/24 10:42:41;;;;;;;19.42;5.03;;;;;;;30.83;33.48;99100.09;6088196;23;20001;-92
2023/09/24 10:45:07;;;;;;;16.00;4.03;;;;;;;30.88;33.60;99091.34;6088687;23;20351;-93
2023/09/24 10:47:38;;;;;;;14.23;3.72;;;;;;;30.90;33.20;99093.69;6131820;23;20089;-92
2023/09/24 10:50:07;;;;;;;19.88;4.22;;;;;;;30.92;33.68;99080.19;6106918;23;20429;-93
2023/09/24 10:52:53;;;;;;;11.35;3.55;;;;;;;31.07;32.94;99086.38;6132055;23;19998;-93
2023/09/24 10:55:28;;;;;;;15.68;3.85;;;;;;;31.11;33.23;99087.13;6131727;23;20006;-93
2023/09/24 10:57:54;;;;;;;16.45;3.70;;;;;;;31.17;33.15;99082.66;6133000;23;20015;-93
2023/09/24 11:00:20;;;;;;;14.25;3.80;;;;;;;31.21;33.12;99084.22;6131036;23;20002;-93
2023/09/24 11:02:59;;;;;;;18.20;3.83;;;;;;;31.21;32.96;99067.53;6087078;23;19998;-95
2023/09/24 11:05:28;;;;;;;11.77;3.28;;;;;;;31.39;33.04;99072.88;6138162;23;20022;-95
2023/09/24 11:07:54;;;;;;;11.65;3.70;;;;;;;31.55;32.53;99083.44;6136727;23;20013;-93
2023/09/24 11:10:20;;;;;;;10.82;3.33;;;;;;;31.57;32.77;99083.03;6081223;23;20005;-92
2023/09/24 11:12:48;;;;;;;12.25;3.42;;;;;;;31.51;32.26;99063.22;6129926;23;20072;-93
2023/09/24 11:15:14;;;;;;;13.30;3.92;;;;;;;31.68;31.62;99068.94;6130742;23;20013;-92
2023/09/24 11:17:39;;;;;;;15.52;3.95;;;;;;;31.66;32.07;99063.00;6082025;23;19998;-92
2023/09/24 11:20:08;;;;;;;18.33;4.65;;;;;;;31.61;32.11;99055.94;6106553;23;19997;-91
2023/09/24 11:22:33;;;;;;;12.30;3.13;;;;;;;31.69;31.44;99067.72;6106271;23;20002;-93
2023/09/24 11:25:14;;;;;;;12.48;3.20;;;;;;;31.75;31.58;99058.50;6107160;23;20009;-93
2023/09/24 11:27:52;;;;;;;15.63;3.78;;;;;;;31.86;30.18;99055.56;6129809;23;20477;-93